createdAt,value
2018-08-24T00:01:49.942Z,47.60
2018-08-24T00:04:18.664Z,47.70
2018-08-24T00:06:47.313Z,47.70
2018-08-24T00:09:16.769Z,47.90
2018-08-24T00:11:45.504Z,48.10
2018-08-24T00:14:14.273Z,48.30
2018-08-24T00:16:43.033Z,48.40
2018-08-24T00:19:12.981Z,48.70
2018-08-24T00:21:41.900Z,49.00
2018-08-24T00:24:11.472Z,49.30
2018-08-24T00:26:40.177Z,49.20
2018-08-24T00:29:09.238Z,49.20
2018-08-24T00:31:38.684Z,49.30
2018-08-24T00:34:07.482Z,49.20
2018-08-24T00:36:36.157Z,49.30
2018-08-24T00:39:07.305Z,49.50
2018-08-24T00:41:36.142Z,49.70
2018-08-24T00:44:05.051Z,49.70
2018-08-24T00:46:33.761Z,49.90
2018-08-24T00:49:02.539Z,50.10
2018-08-24T00:51:31.269Z,50.10
2018-08-24T00:54:00.128Z,50.30
2018-08-24T00:56:29.252Z,50.40
2018-08-24T00:58:58.681Z,50.40
2018-08-24T01:01:27.399Z,50.30
2018-08-24T01:04:00.644Z,50.40
2018-08-24T01:06:29.397Z,50.30
2018-08-24T01:09:00.815Z,50.20
2018-08-24T01:11:35.489Z,50.20
2018-08-24T01:14:04.604Z,50.10
2018-08-24T01:16:38.861Z,50.10
2018-08-24T01:19:21.084Z,50.20
2018-08-24T01:21:50.592Z,50.20
2018-08-24T01:24:19.420Z,50.10
2018-08-24T01:26:53.425Z,49.90
2018-08-24T01:29:22.192Z,49.90
2018-08-24T01:31:50.923Z,49.60
2018-08-24T01:34:19.629Z,49.90
2018-08-24T01:36:48.289Z,49.90
2018-08-24T01:39:17.433Z,50.00
2018-08-24T01:41:46.353Z,51.00
2018-08-24T01:44:15.043Z,50.80
2018-08-24T01:46:45.651Z,51.50
2018-08-24T01:49:16.720Z,51.00
2018-08-24T01:51:45.444Z,50.80
2018-08-24T01:54:14.519Z,50.60
2018-08-24T01:56:43.182Z,50.60
2018-08-24T01:59:12.666Z,50.60
2018-08-24T02:01:41.509Z,50.50
2018-08-24T02:04:14.723Z,50.30
2018-08-24T02:06:46.878Z,50.30
2018-08-24T02:09:21.523Z,50.20
2018-08-24T02:11:53.221Z,50.20
2018-08-24T02:14:27.955Z,50.10
2018-08-24T02:16:57.056Z,50.00
2018-08-24T02:19:35.224Z,49.90
2018-08-24T02:22:14.776Z,49.80
2018-08-24T02:24:45.367Z,49.60
2018-08-24T02:27:14.069Z,49.50
2018-08-24T02:30:08.575Z,49.20
2018-08-24T02:32:37.249Z,48.70
2018-08-24T02:35:06.655Z,48.60
2018-08-24T02:37:35.369Z,48.80
2018-08-24T02:40:04.568Z,49.10
2018-08-24T02:42:33.248Z,49.40
2018-08-24T02:45:02.030Z,49.30
2018-08-24T02:47:30.645Z,49.30
2018-08-24T02:49:59.405Z,49.00
2018-08-24T02:52:29.447Z,49.00
2018-08-24T02:54:58.189Z,48.90
2018-08-24T02:57:26.915Z,49.70
2018-08-24T02:59:55.613Z,49.00
2018-08-24T03:02:24.284Z,49.00
2018-08-24T03:04:52.929Z,49.20
2018-08-24T03:07:22.113Z,49.50
2018-08-24T03:09:50.824Z,49.50
2018-08-24T03:12:20.323Z,49.40
2018-08-24T03:14:49.053Z,49.40
2018-08-24T03:17:23.735Z,49.40
2018-08-24T03:19:52.541Z,49.50
2018-08-24T03:22:21.189Z,49.50
2018-08-24T03:24:49.899Z,49.50
2018-08-24T03:27:18.548Z,49.60
2018-08-24T03:29:47.819Z,49.60
2018-08-24T03:32:16.654Z,49.50
2018-08-24T03:34:46.097Z,49.50
2018-08-24T03:37:14.968Z,49.30
2018-08-24T03:39:43.900Z,49.20
2018-08-24T03:42:13.385Z,49.20
2018-08-24T03:44:42.865Z,49.30
2018-08-24T03:47:11.769Z,49.30
2018-08-24T03:49:40.791Z,49.50
2018-08-24T03:52:09.713Z,49.90
2018-08-24T03:54:39.053Z,49.90
2018-08-24T03:57:08.163Z,49.90
2018-08-24T03:59:38.417Z,49.70
2018-08-24T04:02:10.964Z,49.80
2018-08-24T04:04:39.968Z,49.70
2018-08-24T04:07:08.624Z,49.70
2018-08-24T04:09:37.426Z,49.70
2018-08-24T04:12:06.144Z,49.70
2018-08-24T04:14:34.838Z,49.90
2018-08-24T04:17:08.740Z,50.00
2018-08-24T04:19:37.548Z,50.20
2018-08-24T04:22:06.327Z,50.00
2018-08-24T04:24:35.041Z,50.20
2018-08-24T04:27:03.738Z,50.50
2018-08-24T04:29:32.381Z,50.60
2018-08-24T04:32:01.042Z,50.60
2018-08-24T04:34:29.886Z,50.80
2018-08-24T04:36:58.594Z,50.90
2018-08-24T04:39:27.363Z,51.00
2018-08-24T04:41:56.095Z,51.40
2018-08-24T04:44:24.822Z,51.60
2018-08-24T04:46:53.467Z,51.80
2018-08-24T04:49:22.159Z,51.70
2018-08-24T04:51:50.811Z,51.80
2018-08-24T04:54:19.396Z,52.20
2018-08-24T04:56:48.073Z,52.10
2018-08-24T04:59:16.713Z,52.30
2018-08-24T05:01:45.394Z,52.30
2018-08-24T05:04:14.101Z,52.40
2018-08-24T05:06:42.764Z,52.40
2018-08-24T05:09:11.639Z,52.30
2018-08-24T05:11:40.879Z,52.10
2018-08-24T05:14:10.348Z,52.20
2018-08-24T05:16:38.982Z,52.30
2018-08-24T05:19:07.758Z,52.20
2018-08-24T05:21:36.516Z,51.80
2018-08-24T05:24:05.423Z,51.60
2018-08-24T05:26:34.274Z,51.60
2018-08-24T05:29:05.200Z,51.70
2018-08-24T05:31:34.845Z,51.70
2018-08-24T05:34:03.656Z,51.20
2018-08-24T05:36:32.639Z,50.80
2018-08-24T05:39:01.629Z,50.70
2018-08-24T05:41:31.190Z,50.70
2018-08-24T05:44:01.453Z,50.80
2018-08-24T05:46:30.343Z,50.60
2018-08-24T05:48:59.016Z,50.20
2018-08-24T05:51:27.769Z,50.10
2018-08-24T05:53:56.431Z,50.30
2018-08-24T05:56:25.117Z,50.30
2018-08-24T05:58:53.860Z,50.20
2018-08-24T06:01:22.538Z,50.10
2018-08-24T06:03:51.190Z,50.40
2018-08-24T06:06:19.886Z,50.70
2018-08-24T06:09:18.974Z,50.90
2018-08-24T06:11:47.765Z,50.80
2018-08-24T06:14:16.493Z,50.80
2018-08-24T06:16:50.304Z,50.60
2018-08-24T06:19:19.904Z,50.70
2018-08-24T06:21:48.602Z,51.20
2018-08-24T06:24:17.403Z,51.50
2018-08-24T06:26:46.092Z,51.60
2018-08-24T06:29:15.543Z,51.80
2018-08-24T06:31:44.569Z,52.20
2018-08-24T06:34:14.706Z,52.30
2018-08-24T06:36:43.640Z,52.20
2018-08-24T06:39:14.179Z,52.10
2018-08-24T06:41:44.044Z,52.00
2018-08-24T06:44:12.867Z,52.00
2018-08-24T06:46:41.652Z,51.90
2018-08-24T06:49:11.146Z,51.80
2018-08-24T06:51:40.162Z,51.60
2018-08-24T06:54:09.601Z,51.80
2018-08-24T06:56:38.439Z,51.80
2018-08-24T06:59:07.234Z,51.70
2018-08-24T07:01:35.965Z,51.70
2018-08-24T07:04:04.697Z,51.60
2018-08-24T07:06:33.377Z,51.50
2018-08-24T07:09:02.343Z,51.50
2018-08-24T07:11:31.009Z,52.10
2018-08-24T07:13:59.813Z,51.80
2018-08-24T07:16:28.480Z,52.00
2018-08-24T07:18:57.165Z,52.10
2018-08-24T07:21:26.548Z,52.00
2018-08-24T07:23:55.192Z,51.80
2018-08-24T07:26:24.545Z,51.60
2018-08-24T07:28:53.389Z,51.60
2018-08-24T07:31:22.057Z,51.40
2018-08-24T07:33:50.773Z,51.30
2018-08-24T07:36:19.502Z,51.20
2018-08-24T07:38:48.225Z,51.10
2018-08-24T07:41:17.026Z,51.20
2018-08-24T07:43:45.828Z,51.10
2018-08-24T07:46:14.461Z,51.20
2018-08-24T07:48:43.100Z,51.40
2018-08-24T07:51:11.761Z,51.80
2018-08-24T07:53:40.541Z,51.70
2018-08-24T07:56:09.244Z,51.60
2018-08-24T07:58:37.973Z,51.50
2018-08-24T08:01:06.695Z,51.50
2018-08-24T08:03:35.358Z,51.60
2018-08-24T08:06:04.014Z,51.60
2018-08-24T08:08:32.690Z,51.70
2018-08-24T08:11:01.414Z,51.70
2018-08-24T08:13:30.096Z,51.80
2018-08-24T08:15:58.866Z,51.70
2018-08-24T08:18:27.550Z,51.60
2018-08-24T08:20:56.256Z,51.50
2018-08-24T08:23:24.933Z,51.40
2018-08-24T08:25:53.745Z,51.10
2018-08-24T08:28:22.441Z,51.00
2018-08-24T08:30:51.224Z,50.90
2018-08-24T08:33:19.880Z,50.80
2018-08-24T08:35:49.158Z,50.70
2018-08-24T08:38:18.115Z,50.50
2018-08-24T08:40:46.838Z,50.50
2018-08-24T08:43:15.537Z,50.40
2018-08-24T08:45:44.359Z,49.70
2018-08-24T08:48:13.030Z,50.10
2018-08-24T08:50:42.565Z,50.00
2018-08-24T08:53:11.383Z,49.70
2018-08-24T08:55:40.970Z,49.60
2018-08-24T08:58:09.642Z,49.60
2018-08-24T09:00:38.276Z,49.60
2018-08-24T09:03:07.095Z,49.70
2018-08-24T09:05:36.408Z,49.70
2018-08-24T09:08:05.145Z,49.10
2018-08-24T09:10:33.800Z,49.10
2018-08-24T09:13:02.632Z,48.80
2018-08-24T09:15:31.726Z,48.70
2018-08-24T09:18:05.769Z,48.80
2018-08-24T09:20:39.634Z,48.50
2018-08-24T09:23:13.668Z,48.20
2018-08-24T09:25:48.683Z,44.10
2018-08-24T09:28:22.532Z,43.40
2018-08-24T09:31:04.363Z,43.20
2018-08-24T09:33:33.087Z,43.70
2018-08-24T09:36:07.062Z,43.70
2018-08-24T09:38:35.745Z,44.10
2018-08-24T09:41:05.255Z,44.00
2018-08-24T09:43:39.239Z,44.40
2018-08-24T09:46:08.285Z,44.20
2018-08-24T09:48:42.248Z,44.60
2018-08-24T09:51:16.123Z,44.40
2018-08-24T09:53:49.983Z,44.70
2018-08-24T09:56:18.745Z,44.80
2018-08-24T09:58:47.451Z,44.40
2018-08-24T10:01:22.114Z,44.90
2018-08-24T10:03:56.253Z,45.10
2018-08-24T10:06:30.299Z,45.20
2018-08-24T10:08:58.983Z,45.60
2018-08-24T10:11:28.055Z,45.90
2018-08-24T10:13:56.746Z,46.30
2018-08-24T10:16:25.401Z,46.50
2018-08-24T10:18:54.123Z,46.80
2018-08-24T10:21:22.863Z,46.50
2018-08-24T10:23:51.699Z,46.90
2018-08-24T10:26:20.350Z,47.10
2018-08-24T10:28:49.060Z,47.00
2018-08-24T10:31:17.761Z,47.30
2018-08-24T10:33:46.564Z,47.10
2018-08-24T10:36:15.217Z,47.00
2018-08-24T10:38:43.891Z,47.50
2018-08-24T10:41:12.617Z,48.00
2018-08-24T10:43:41.269Z,48.50
2018-08-24T10:46:10.022Z,48.80
2018-08-24T10:48:38.762Z,49.70
2018-08-24T10:51:07.470Z,50.30
2018-08-24T10:53:36.211Z,50.30
2018-08-24T10:56:05.655Z,50.50
2018-08-24T10:58:35.273Z,50.80
2018-08-24T11:01:03.972Z,50.80
2018-08-24T11:03:33.587Z,50.50
2018-08-24T11:06:04.007Z,50.50
2018-08-24T11:08:32.764Z,50.40
2018-08-24T11:11:01.546Z,50.40
2018-08-24T11:13:30.314Z,50.80
2018-08-24T11:15:59.056Z,51.70
2018-08-24T11:18:27.716Z,52.20
2018-08-24T11:20:56.465Z,53.20
2018-08-24T11:23:25.145Z,52.20
2018-08-24T11:25:53.878Z,52.60
2018-08-24T11:28:22.537Z,52.70
2018-08-24T11:30:51.252Z,52.90
2018-08-24T11:33:20.027Z,53.10
2018-08-24T11:35:49.408Z,53.20
2018-08-24T11:38:18.049Z,53.20
2018-08-24T11:40:46.787Z,53.40
2018-08-24T11:43:15.449Z,53.60
2018-08-24T11:45:44.225Z,53.90
2018-08-24T11:48:12.931Z,54.70
2018-08-24T11:50:41.568Z,55.10
2018-08-24T11:53:10.200Z,55.30
2018-08-24T11:55:38.879Z,55.30
2018-08-24T11:58:07.616Z,55.40
2018-08-24T12:00:36.348Z,56.00
2018-08-24T12:03:05.104Z,56.20
2018-08-24T12:05:33.773Z,56.10
2018-08-24T12:08:03.504Z,56.90
2018-08-24T12:10:32.193Z,57.10
2018-08-24T12:13:00.995Z,57.60
2018-08-24T12:15:29.717Z,57.90
2018-08-24T12:17:58.437Z,58.80
2018-08-24T12:20:27.125Z,58.00
2018-08-24T12:22:55.836Z,58.30
2018-08-24T12:25:24.519Z,58.50
2018-08-24T12:27:53.253Z,58.20
2018-08-24T12:30:21.944Z,57.80
2018-08-24T12:32:50.605Z,57.80
2018-08-24T12:35:19.342Z,57.60
2018-08-24T12:37:48.590Z,57.80
2018-08-24T12:40:17.323Z,58.30
2018-08-24T12:42:46.700Z,60.10
2018-08-24T12:45:15.416Z,60.00
2018-08-24T12:47:44.129Z,60.80
2018-08-24T12:50:12.839Z,60.50
2018-08-24T12:52:41.537Z,60.20
2018-08-24T12:55:10.235Z,59.30
2018-08-24T12:57:38.898Z,58.70
2018-08-24T13:00:07.647Z,57.90
2018-08-24T13:02:36.308Z,57.60
2018-08-24T13:05:05.097Z,57.20
2018-08-24T13:07:33.733Z,57.70
2018-08-24T13:10:02.418Z,58.10
2018-08-24T13:12:31.115Z,58.00
2018-08-24T13:14:59.829Z,58.30
2018-08-24T13:17:28.493Z,58.30
2018-08-24T13:19:57.221Z,58.30
2018-08-24T13:22:26.651Z,58.60
2018-08-24T13:24:55.366Z,58.80
2018-08-24T13:27:24.102Z,58.90
2018-08-24T13:29:52.816Z,58.50
2018-08-24T13:32:21.549Z,58.60
2018-08-24T13:34:50.210Z,58.20
2018-08-24T13:37:18.931Z,57.90
2018-08-24T13:39:47.629Z,57.80
2018-08-24T13:42:16.290Z,57.90
2018-08-24T13:44:44.985Z,57.30
2018-08-24T13:47:13.671Z,56.90
2018-08-24T13:49:42.403Z,56.60
2018-08-24T13:52:11.090Z,56.10
2018-08-24T13:54:39.867Z,55.40
2018-08-24T13:57:08.527Z,54.80
2018-08-24T13:59:37.330Z,54.60
2018-08-24T14:02:06.089Z,54.30
2018-08-24T14:04:34.810Z,54.30
2018-08-24T14:07:03.507Z,54.10
2018-08-24T14:09:32.177Z,53.90
2018-08-24T14:12:00.880Z,53.70
2018-08-24T14:14:29.642Z,53.40
2018-08-24T14:16:58.414Z,52.90
2018-08-24T14:19:27.120Z,52.40
2018-08-24T14:21:55.818Z,52.50
2018-08-24T14:24:24.535Z,52.70
2018-08-24T14:26:53.261Z,52.60
2018-08-24T14:29:22.371Z,53.30
2018-08-24T14:31:51.122Z,53.60
2018-08-24T14:34:19.734Z,53.90
2018-08-24T14:36:48.425Z,54.00
2018-08-24T14:39:17.154Z,54.80
2018-08-24T14:41:45.806Z,54.40
2018-08-24T14:44:14.510Z,54.20
2018-08-24T14:46:43.208Z,54.10
2018-08-24T14:49:11.993Z,53.80
2018-08-24T14:51:40.670Z,53.50
2018-08-24T14:54:09.323Z,53.30
2018-08-24T14:56:38.052Z,53.30
2018-08-24T14:59:06.776Z,53.40
2018-08-24T15:01:35.569Z,54.00
2018-08-24T15:04:04.277Z,53.10
2018-08-24T15:06:32.933Z,52.60
2018-08-24T15:09:01.764Z,52.30
2018-08-24T15:11:30.493Z,52.00
2018-08-24T15:13:59.163Z,51.90
2018-08-24T15:16:27.840Z,51.80
2018-08-24T15:18:56.586Z,51.50
2018-08-24T15:21:25.340Z,51.50
2018-08-24T15:23:54.073Z,51.20
2018-08-24T15:26:22.767Z,51.20
2018-08-24T15:28:51.522Z,51.00
2018-08-24T15:31:20.242Z,50.90
2018-08-24T15:33:48.916Z,51.40
2018-08-24T15:36:17.659Z,50.90
2018-08-24T15:38:46.362Z,50.40
2018-08-24T15:41:15.068Z,50.00
2018-08-24T15:43:43.738Z,49.10
2018-08-24T15:46:12.551Z,48.80
2018-08-24T15:48:41.184Z,48.90
2018-08-24T15:51:11.433Z,48.80
2018-08-24T15:53:40.059Z,48.90
2018-08-24T15:56:08.771Z,49.20
2018-08-24T15:58:37.477Z,49.10
2018-08-24T16:01:06.260Z,49.10
2018-08-24T16:03:34.941Z,49.30
2018-08-24T16:06:03.614Z,49.50
2018-08-24T16:08:32.254Z,49.60
2018-08-24T16:11:01.046Z,49.80
2018-08-24T16:13:29.697Z,49.90
2018-08-24T16:15:58.332Z,50.10
2018-08-24T16:18:27.094Z,50.10
2018-08-24T16:20:55.785Z,49.80
2018-08-24T16:23:25.215Z,49.40
2018-08-24T16:25:53.936Z,49.30
2018-08-24T16:28:22.622Z,49.50
2018-08-24T16:30:51.257Z,49.80
2018-08-24T16:33:20.038Z,49.50
2018-08-24T16:35:49.291Z,50.20
2018-08-24T16:38:18.001Z,51.90
2018-08-24T16:40:46.713Z,53.10
2018-08-24T16:43:15.849Z,55.20
2018-08-24T16:45:44.767Z,56.90
2018-08-24T16:48:13.539Z,57.80
2018-08-24T16:50:42.295Z,59.10
2018-08-24T16:53:11.034Z,61.40
2018-08-24T16:55:39.725Z,69.10
2018-08-24T16:58:11.163Z,69.60
2018-08-24T17:00:39.727Z,72.80
2018-08-24T17:03:08.429Z,73.60
2018-08-24T17:05:37.157Z,74.80
2018-08-24T17:08:06.254Z,77.30
2018-08-24T17:10:34.943Z,79.10
2018-08-24T17:13:03.733Z,82.20
2018-08-24T17:15:32.429Z,83.70
2018-08-24T17:18:01.205Z,85.60
2018-08-24T17:20:29.871Z,87.80
2018-08-24T17:22:58.638Z,87.70
2018-08-24T17:25:27.290Z,89.30
2018-08-24T17:27:55.973Z,90.40
2018-08-24T17:30:24.680Z,90.50
2018-08-24T17:32:53.391Z,90.80
2018-08-24T17:35:22.198Z,91.10
2018-08-24T17:37:50.953Z,91.60
2018-08-24T17:40:19.590Z,91.80
2018-08-24T17:42:48.238Z,91.70
2018-08-24T17:45:16.988Z,92.10
2018-08-24T17:47:45.704Z,91.40
2018-08-24T17:50:14.387Z,92.10
2018-08-24T17:52:43.085Z,92.00
2018-08-24T17:55:11.802Z,92.30
2018-08-24T17:57:40.485Z,91.80
2018-08-24T18:00:09.365Z,92.00
2018-08-24T18:02:38.086Z,92.30
2018-08-24T18:05:07.053Z,91.60
2018-08-24T18:07:35.725Z,91.60
2018-08-24T18:10:04.578Z,91.40
2018-08-24T18:12:33.265Z,90.70
2018-08-24T18:15:02.412Z,90.80
2018-08-24T18:17:31.035Z,91.30
2018-08-24T18:19:59.721Z,92.10
2018-08-24T18:22:28.809Z,92.60
2018-08-24T18:24:57.471Z,92.50
2018-08-24T18:27:26.165Z,92.30
2018-08-24T18:29:54.943Z,92.50
2018-08-24T18:32:23.627Z,92.10
2018-08-24T18:34:52.295Z,93.10
2018-08-24T18:37:21.015Z,92.60
2018-08-24T18:39:49.728Z,92.30
2018-08-24T18:42:18.402Z,92.30
2018-08-24T18:44:47.538Z,92.40
2018-08-24T18:47:16.210Z,92.40
2018-08-24T18:49:44.906Z,92.90
2018-08-24T18:52:13.620Z,92.50
2018-08-24T18:54:42.263Z,92.60
2018-08-24T18:57:11.025Z,92.60
2018-08-24T18:59:39.680Z,92.60
2018-08-24T19:02:08.432Z,92.80
2018-08-24T19:04:37.117Z,93.10
2018-08-24T19:07:05.800Z,93.00
2018-08-24T19:09:34.491Z,93.20
2018-08-24T19:12:08.406Z,92.80
2018-08-24T19:14:37.188Z,92.40
2018-08-24T19:17:06.057Z,92.20
2018-08-24T19:19:40.070Z,91.30
2018-08-24T19:22:08.832Z,91.50
2018-08-24T19:24:37.640Z,91.30
2018-08-24T19:27:06.439Z,91.20
2018-08-24T19:29:40.368Z,91.50
2018-08-24T19:32:09.357Z,91.40
2018-08-24T19:34:38.011Z,91.00
2018-08-24T19:37:06.764Z,90.80
2018-08-24T19:39:35.409Z,91.00
2018-08-24T19:42:09.312Z,91.10
2018-08-24T19:44:37.952Z,90.80
2018-08-24T19:47:10.841Z,90.70
2018-08-24T19:49:39.577Z,90.50
2018-08-24T19:52:08.272Z,90.50
2018-08-24T19:54:36.956Z,90.70
2018-08-24T19:57:11.033Z,90.70
2018-08-24T19:59:39.688Z,90.50
2018-08-24T20:02:08.364Z,90.50
2018-08-24T20:04:37.102Z,90.30
2018-08-24T20:07:10.949Z,90.20
2018-08-24T20:09:45.503Z,89.70
2018-08-24T20:12:14.194Z,90.00
2018-08-24T20:14:48.068Z,89.80
2018-08-24T20:17:21.989Z,89.40
2018-08-24T20:19:50.692Z,89.10
2018-08-24T20:22:19.432Z,89.20
2018-08-24T20:24:48.110Z,90.10
2018-08-24T20:27:16.808Z,90.90
2018-08-24T20:29:45.613Z,91.60
2018-08-24T20:32:14.588Z,91.90
2018-08-24T20:34:43.309Z,91.60
2018-08-24T20:37:12.582Z,91.60
2018-08-24T20:39:41.305Z,91.10
2018-08-24T20:42:10.025Z,90.80
2018-08-24T20:44:38.745Z,91.20
2018-08-24T20:47:07.576Z,90.90
2018-08-24T20:49:36.390Z,91.20
2018-08-24T20:52:05.269Z,91.30
2018-08-24T20:54:33.941Z,90.90
2018-08-24T20:57:02.693Z,91.00
2018-08-24T20:59:31.456Z,91.10
2018-08-24T21:02:00.146Z,91.20
2018-08-24T21:04:28.859Z,91.50
2018-08-24T21:06:58.062Z,91.80
2018-08-24T21:09:26.744Z,92.10
2018-08-24T21:11:56.187Z,92.40
2018-08-24T21:14:25.255Z,92.40
2018-08-24T21:16:54.301Z,92.40
2018-08-24T21:19:22.956Z,93.00
2018-08-24T21:21:51.690Z,93.50
2018-08-24T21:24:20.437Z,93.40
2018-08-24T21:26:49.316Z,93.50
2018-08-24T21:29:18.129Z,93.50
2018-08-24T21:31:46.736Z,93.50
2018-08-24T21:34:15.392Z,93.80
2018-08-24T21:36:45.140Z,93.80
2018-08-24T21:39:13.859Z,93.60
2018-08-24T21:41:42.608Z,93.70
2018-08-24T21:44:11.321Z,93.80
2018-08-24T21:46:40.016Z,93.90
2018-08-24T21:49:08.726Z,93.80
2018-08-24T21:51:37.450Z,93.50
2018-08-24T21:54:06.265Z,93.20
2018-08-24T21:56:35.582Z,93.00
2018-08-24T21:59:04.745Z,92.90
2018-08-24T22:01:33.548Z,93.30
2018-08-24T22:04:02.344Z,93.20
2018-08-24T22:06:31.099Z,93.20
2018-08-24T22:08:59.860Z,93.50
2018-08-24T22:11:28.613Z,93.60
2018-08-24T22:13:57.289Z,93.60
2018-08-24T22:16:26.103Z,93.40
2018-08-24T22:18:54.824Z,93.00
2018-08-24T22:21:23.579Z,93.20
2018-08-24T22:23:52.261Z,93.00
2018-08-24T22:26:21.014Z,92.90
2018-08-24T22:28:49.753Z,93.30
2018-08-24T22:31:18.421Z,93.30
2018-08-24T22:33:47.120Z,93.80
2018-08-24T22:36:15.874Z,93.70
2018-08-24T22:38:44.494Z,93.70
2018-08-24T22:41:13.380Z,93.50
2018-08-24T22:43:42.058Z,93.60
2018-08-24T22:46:10.768Z,93.70
2018-08-24T22:48:40.265Z,94.00
2018-08-24T22:51:09.045Z,94.20
2018-08-24T22:53:37.817Z,94.40
2018-08-24T22:56:06.874Z,94.50
2018-08-24T22:58:35.520Z,94.50
2018-08-24T23:01:04.230Z,94.70
2018-08-24T23:03:32.961Z,95.10
2018-08-24T23:06:01.737Z,95.10
2018-08-24T23:08:30.413Z,95.20
2018-08-24T23:10:59.116Z,95.30
2018-08-24T23:13:27.784Z,95.30
2018-08-24T23:15:56.500Z,95.20
2018-08-24T23:18:25.214Z,95.40
2018-08-24T23:20:53.913Z,95.10
2018-08-24T23:23:22.710Z,95.40
2018-08-24T23:25:51.452Z,95.70
2018-08-24T23:28:20.138Z,96.20
2018-08-24T23:30:48.782Z,96.40
2018-08-24T23:33:17.552Z,96.30
2018-08-24T23:35:46.223Z,96.30
2018-08-24T23:38:15.461Z,96.70
2018-08-24T23:40:44.146Z,96.70
2018-08-24T23:43:12.885Z,96.80
2018-08-24T23:45:42.175Z,96.70
2018-08-24T23:48:11.636Z,96.60
2018-08-24T23:50:40.335Z,96.90
2018-08-24T23:53:09.035Z,97.00
2018-08-24T23:55:37.669Z,96.70
2018-08-24T23:58:06.773Z,97.00
